16 de agosto de 2022

Hora Código Clima Temp. Visibilidade Tecto Vento METAR/SPECI
10:55
V
25 °C 10 km+ - 220° 220° 8 kt METAR EHDL 160855Z AUTO 22008KT 150V290 9999 SCT300 25/15 Q1007 BLU
10:25
V
24 °C 10 km+ 30.000 ft 210° 210° 10 kt METAR EHDL 160825Z AUTO 21010KT 130V280 9999 OVC300 24/14 Q1007 BLU
09:55
V
23 °C 10 km+ - 210° 210° 11 kt METAR EHDL 160755Z AUTO 21011KT 150V290 9999 SCT330 23/14 Q1007 BLU
09:25
V
22 °C 10 km+ 34.000 ft 220° 220° 7 kt METAR EHDL 160725Z AUTO 22007KT 130V300 9999 BKN340 22/15 Q1007 BLU
08:55
V
21 °C 10 km+ - 210° 210° 7 kt METAR EHDL 160655Z AUTO 21007KT 140V290 9999 NCD 21/16 Q1007 BLU
08:25
V
20 °C 10 km+ - 210° 210° 4 kt METAR EHDL 160625Z AUTO 21004KT 130V280 9999 NCD 20/16 Q1006 BLU
07:55
V
19 °C 10 km+ - Var Var 2 kt METAR EHDL 160555Z AUTO VRB02KT 9999 SCT100 19/16 Q1006 BLU
07:25
V
18 °C 10 km+ - Var Var 2 kt METAR EHDL 160525Z AUTO VRB02KT 9999 NCD 18/16 Q1006 BLU
06:55
V
16 °C 10 km+ - Var Var 1 kt METAR EHDL 160455Z AUTO VRB01KT 9999 NCD 16/15 Q1006 BLU
06:25
V
16 °C 10 km+ - 130° 130° 2 kt METAR EHDL 160425Z AUTO 13002KT 9999 NCD 16/14 Q1006 BLU
05:55
V
17 °C 10 km+ - Var Var 2 kt METAR EHDL 160355Z AUTO VRB02KT 9999 FEW320 17/15 Q1006 BLU
05:25
V
17 °C 10 km+ - 130° 130° 2 kt METAR EHDL 160325Z AUTO 13002KT 9999 NCD 17/15 Q1006 BLU
04:55
V
17 °C 10 km+ - 140° 140° 2 kt METAR EHDL 160255Z AUTO 14002KT 9999 NCD 17/15 Q1006 BLU
04:25
V
17 °C 10 km+ - 180° 180° 1 kt METAR EHDL 160225Z AUTO 18001KT 9999 NCD 17/15 Q1006 BLU
03:55
V
19 °C 10 km+ - 180° 180° 2 kt METAR EHDL 160155Z AUTO 18002KT 9999 NCD 19/15 Q1006 BLU
03:25
V
19 °C 10 km+ - Var Var 2 kt METAR EHDL 160125Z AUTO VRB02KT 9999 NCD 19/15 Q1006 BLU
02:55
V
19 °C 10 km+ 13.000 ft 190° 190° 3 kt METAR EHDL 160055Z AUTO 19003KT 120V180 9999 OVC130 19/15 Q1006 BLU
02:25
V
19 °C 10 km+ 13.000 ft 150° 150° 2 kt METAR EHDL 160025Z AUTO 15002KT 9999 OVC130 19/15 Q1006 BLU
01:25
V
20 °C 10 km+ - 180° 180° 2 kt METAR EHDL 152325Z AUTO 18002KT 9999 FEW110 SCT200 20/16 Q1006 BLU
00:55
V
21 °C 10 km+ 11.000 ft 190° 190° 4 kt METAR EHDL 152255Z AUTO 19004KT 120V210 9999 OVC110 21/15 Q1006 BLU
00:25
V
22 °C 10 km+ 11.000 ft 210° 210° 5 kt METAR EHDL 152225Z AUTO 21005KT 140V210 9999 OVC110 22/16 Q1006 BLU

15 de agosto de 2022

Hora Código Clima Temp. Visibilidade Tecto Vento METAR/SPECI
23:55
V
22 °C 10 km+ 10.000 ft 200° 200° 5 kt METAR EHDL 152155Z AUTO 20005KT 150V220 9999 OVC100 22/16 Q1006 BLU
23:25
V
22 °C 10 km+ 10.000 ft 190° 190° 2 kt METAR EHDL 152125Z AUTO 19002KT 9999 OVC100 22/16 Q1006 BLU
22:55
V
22 °C 10 km+ 10.000 ft 160° 160° 2 kt METAR EHDL 152055Z AUTO 16002KT 9999 OVC100 22/17 Q1005 BLU
22:25
V
22 °C 10 km+ 10.000 ft 210° 210° 3 kt METAR EHDL 152025Z AUTO 21003KT 9999 OVC100 22/16 Q1005 BLU
21:55
V
22 °C 10 km+ 8.300 ft 140° 140° 2 kt METAR EHDL 151955Z AUTO 14002KT 9999 BKN083 OVC120 22/17 Q1005 BLU
21:25
V
23 °C 10 km+ 10.000 ft 170° 170° 3 kt METAR EHDL 151925Z AUTO 17003KT 120V180 9999 OVC100 23/16 Q1005 BLU
20:55
V
24 °C 10 km+ 9.500 ft 200° 200° 4 kt METAR EHDL 151855Z AUTO 20004KT 150V230 9999 OVC095 24/16 Q1005 BLU
20:25
V
25 °C 10 km+ 10.000 ft 200° 200° 4 kt METAR EHDL 151825Z AUTO 20004KT 150V240 9999 OVC100 25/16 Q1004 BLU
19:55
V
25 °C 10 km+ 10.000 ft 220° 220° 5 kt METAR EHDL 151755Z AUTO 22005KT 140V250 9999 OVC100 25/16 Q1004 BLU
19:25
V
25 °C 10 km+ 10.000 ft 190° 190° 4 kt METAR EHDL 151725Z AUTO 19004KT 130V260 9999 OVC100 25/15 Q1004 BLU
18:55
V
25 °C 10 km+ 9.500 ft 210° 210° 6 kt METAR EHDL 151655Z AUTO 21006KT 130V290 9999 OVC095 25/16 Q1004 BLU
18:25
V
25 °C 10 km+ 10.000 ft 220° 220° 4 kt METAR EHDL 151625Z AUTO 22004KT 140V290 9999 FEW087 OVC100 25/16 Q1004 BLU
17:55
V
26 °C 10 km+ 9.300 ft 250° 250° 5 kt METAR EHDL 151555Z AUTO 25005KT 140V270 9999 BKN093 OVC098 26/16 Q1004 BLU
17:25
V
25 °C 10 km+ 9.200 ft 220° 220° 8 kt METAR EHDL 151525Z AUTO 22008KT 140V260 9999 OVC092 25/16 Q1004 BLU
16:55
V
26 °C 10 km+ 9.400 ft 220° 220° 8 kt METAR EHDL 151455Z AUTO 22008KT 140V300 9999 OVC094 26/15 Q1004 BLU
16:25
V
26 °C 10 km+ 10.000 ft 200° 200° 4 kt METAR EHDL 151425Z AUTO 20004KT 130V300 9999 OVC100 26/16 Q1004 BLU
15:55
V
25 °C 10 km+ 10.000 ft Var Var 3 kt METAR EHDL 151355Z AUTO VRB03KT 9999 OVC100 25/17 Q1004 BLU
15:25
V
25 °C 10 km+ 10.000 ft Var Var 6 kt METAR EHDL 151325Z AUTO VRB06KT 9999 SCT099 OVC100 25/17 Q1004 BLU
14:55
V
25 °C 10 km+ 10.000 ft 240° 240° 8 kt METAR EHDL 151255Z AUTO 24008KT 140V270 9999 FEW051 SCT079 OVC100 25/17 Q1004 BLU
14:25
V
25 °C 10 km+ 10.000 ft 210° 210° 8 kt METAR EHDL 151225Z AUTO 21008KT 130V270 9999 -RA FEW081 OVC100 25/17 Q1004 BLU
13:55
V
25 °C 10 km+ 11.000 ft 200° 200° 8 kt METAR EHDL 151155Z AUTO 20008KT 130V280 9999 OVC110 25/16 Q1004 BLU
13:25
V
25 °C 10 km+ 10.000 ft 210° 210° 8 kt METAR EHDL 151125Z AUTO 21008KT 160V320 9999 OVC100 25/16 Q1004 BLU
12:55
V
24 °C 10 km+ 10.000 ft 230° 230° 8 kt METAR EHDL 151055Z AUTO 23008KT 140V290 9999 -RADZ FEW075 SCT091 OVC100 24/16 Q1004 BLU
12:25
V
24 °C 10 km+ 10.000 ft 220° 220° 7 kt METAR EHDL 151025Z AUTO 22007KT 160V280 9999 FEW070 OVC100 24/14 Q1004 BLU
11:55
V
24 °C 10 km+ 10.000 ft 210° 210° 8 kt METAR EHDL 150955Z AUTO 21008KT 140V280 9999 OVC100 24/15 Q1003 BLU
11:25
V
25 °C 10 km+ 12.000 ft Var Var 9 kt METAR EHDL 150925Z AUTO VRB09KT 9999 OVC120 25/14 Q1003 BLU
10:55
V
25 °C 10 km+ 11.000 ft 240° 240° 7 kt METAR EHDL 150855Z AUTO 24007KT 160V280 9999 OVC110 25/14 Q1003 BLU
10:25
V
24 °C 10 km+ 15.000 ft 240° 240° 7 kt METAR EHDL 150825Z AUTO 24007KT 170V300 9999 OVC150 24/14 Q1003 BLU
09:55
V
24 °C 10 km+ 14.000 ft 220° 220° 8 kt METAR EHDL 150755Z AUTO 22008KT 160V290 9999 OVC140 24/14 Q1003 BLU
09:25
V
24 °C 10 km+ 14.000 ft 240° 240° 9 kt METAR EHDL 150725Z AUTO 24009KT 180V300 9999 OVC140 24/14 Q1003 BLU
08:55
V
23 °C 10 km+ 9.000 ft 240° 240° 7 kt METAR EHDL 150655Z AUTO 24007KT 190V310 9999 BKN090 OVC210 23/15 Q1003 BLU
08:25
V
22 °C 10 km+ - 250° 250° 7 kt METAR EHDL 150625Z AUTO 25007KT 170V320 9999 SCT350 22/15 Q1003 BLU
07:55
V
20 °C 10 km+ 19.000 ft 200° 200° 3 kt METAR EHDL 150555Z AUTO 20003KT 100V200 9999 OVC190 20/15 Q1003 BLU
07:25
V
18 °C 10 km+ 17.000 ft Var Var 2 kt METAR EHDL 150525Z AUTO VRB02KT 9999 OVC170 18/15 Q1002 BLU
06:55
V
18 °C 10 km+ 19.000 ft Var Var 1 kt METAR EHDL 150455Z AUTO VRB01KT 9999 OVC190 18/14 Q1002 BLU
06:25
V
18 °C 10 km+ 19.000 ft Var Var 1 kt METAR EHDL 150425Z AUTO VRB01KT 9999 OVC190 18/14 Q1002 BLU
05:55
V
19 °C 10 km+ 20.000 ft Var Var 2 kt METAR EHDL 150355Z AUTO VRB02KT 9999 FEW088 OVC200 19/14 Q1002 BLU
05:25
V
21 °C 10 km+ 20.000 ft Var Var 3 kt METAR EHDL 150325Z AUTO VRB03KT 9999 TS OVC200 21/15 Q1002 BLU
04:55
V
19 °C 10 km+ 19.000 ft 080° 080° 4 kt METAR EHDL 150255Z AUTO 08004KT 040V210 9999 BKN190 FEW///CB 19/14 Q1002 BLU
04:25
V
20 °C 10 km+ 21.000 ft 200° 200° 1 kt METAR EHDL 150225Z AUTO 20001KT 9999 OVC210 20/14 Q1002 BLU
03:55
V
22 °C 10 km+ 22.000 ft Var Var 2 kt METAR EHDL 150155Z AUTO VRB02KT 9999 FEW092 SCT100 OVC220 22/14 Q1003 BLU
03:25
V
22 °C 10 km+ 21.000 ft Var Var 1 kt METAR EHDL 150125Z AUTO VRB01KT 9999 FEW093 OVC210 22/14 Q1003 BLU
02:55
V
21 °C 10 km+ 8.900 ft Var Var 3 kt METAR EHDL 150055Z AUTO VRB03KT 9999 OVC089 21/15 Q1003 BLU
02:25
V
21 °C 10 km+ 22.000 ft Var Var 1 kt METAR EHDL 150025Z AUTO VRB01KT 9999 OVC220 21/14 Q1003 BLU
01:55
V
22 °C 10 km+ 22.000 ft Var Var 1 kt METAR EHDL 142355Z AUTO VRB01KT 9999 OVC220 22/14 Q1003 BLU
01:25
V
23 °C 10 km+ 8.200 ft Var Var 1 kt METAR EHDL 142325Z AUTO VRB01KT 9999 OVC082 23/14 Q1004 BLU
00:55
V
22 °C 10 km+ 8.500 ft Var Var 1 kt METAR EHDL 142255Z AUTO VRB01KT 9999 OVC085 22/14 Q1004 BLU
00:25
V
21 °C 10 km+ 8.900 ft Var Var 1 kt METAR EHDL 142225Z AUTO VRB01KT 9999 BKN089 OVC095 21/14 Q1004 BLU

14 de agosto de 2022

Hora Código Clima Temp. Visibilidade Tecto Vento METAR/SPECI
23:55
V
21 °C 10 km+ 28.000 ft Var Var 1 kt METAR EHDL 142155Z AUTO VRB01KT 9999 FEW100 OVC280 21/14 Q1004 BLU
23:25
V
21 °C 10 km+ 27.000 ft Var 000° 0 kt METAR EHDL 142125Z AUTO 00000KT 9999 OVC270 21/14 Q1004 BLU
22:55
V
21 °C 10 km+ 28.000 ft Var 000° 0 kt METAR EHDL 142055Z AUTO 00000KT 9999 OVC280 21/14 Q1005 BLU
22:25
V
21 °C 10 km+ 29.000 ft Var Var 1 kt METAR EHDL 142025Z AUTO VRB01KT 9999 OVC290 21/14 Q1005 BLU
21:55
V
22 °C 10 km+ 29.000 ft Var Var 1 kt METAR EHDL 141955Z AUTO VRB01KT 9999 OVC290 22/14 Q1005 BLU
21:25
V
23 °C 10 km+ 28.000 ft Var 000° 0 kt METAR EHDL 141925Z AUTO 00000KT 9999 OVC280 23/14 Q1005 BLU
20:55
V
24 °C 10 km+ 28.000 ft 060° 060° 3 kt METAR EHDL 141855Z AUTO 06003KT 030V090 9999 OVC280 24/14 Q1005 BLU
20:25
V
25 °C 10 km+ 28.000 ft 060° 060° 3 kt METAR EHDL 141825Z AUTO 06003KT 9999 OVC280 25/14 Q1005 BLU
19:55
V
27 °C 10 km+ 30.000 ft 080° 080° 2 kt METAR EHDL 141755Z AUTO 08002KT 9999 OVC300 27/15 Q1005 BLU
19:25
V
30 °C 10 km+ 29.000 ft Var Var 2 kt METAR EHDL 141725Z AUTO VRB02KT 9999 OVC290 30/13 Q1005 BLU
18:55
V
30 °C 10 km+ 29.000 ft 140° 140° 3 kt METAR EHDL 141655Z AUTO 14003KT 070V210 9999 OVC290 30/12 Q1005 BLU
18:25
V
31 °C 10 km+ 30.000 ft Var Var 6 kt METAR EHDL 141625Z AUTO VRB06KT 9999 OVC300 31/12 Q1005 BLU
17:55
V
32 °C 10 km+ 33.000 ft Var Var 5 kt METAR EHDL 141555Z AUTO VRB05KT 9999 OVC330 32/12 Q1005 BLU
17:25
V
30 °C 10 km+ 33.000 ft Var Var 7 kt METAR EHDL 141525Z AUTO VRB07KT 9999 OVC330 30/12 Q1006 BLU
16:55
V
31 °C 10 km+ 8.400 ft 150° 150° 6 kt METAR EHDL 141455Z AUTO 15006KT 030V200 9999 BKN084 BKN093 BKN360 31/12 Q1006 BLU
16:25
V
31 °C 10 km+ 7.100 ft Var Var 5 kt METAR EHDL 141425Z AUTO VRB05KT 9999 BKN071 OVC078 31/12 Q1006 BLU
15:55
V
30 °C 10 km+ 7.600 ft 060° 060° 5 kt METAR EHDL 141355Z AUTO 06005KT 060V230 9999 SCT070 BKN076 30/12 Q1006 BLU
15:25
V
31 °C 10 km+ 40.000 ft Var Var 6 kt METAR EHDL 141325Z AUTO VRB06KT 9999 OVC400 31/12 Q1007 BLU
14:55
V
31 °C 10 km+ - Var Var 5 kt METAR EHDL 141255Z AUTO VRB05KT 9999 SCT071 SCT078 31/12 Q1007 BLU
14:25
V
31 °C 10 km+ - Var Var 6 kt METAR EHDL 141225Z AUTO VRB06KT 9999 FEW066 31/12 Q1008 BLU
13:55
V
30 °C 10 km+ - Var Var 7 kt METAR EHDL 141155Z AUTO VRB07KT 9999 SCT065 30/13 Q1008 BLU
13:25
V
31 °C 10 km+ - Var Var 7 kt METAR EHDL 141125Z AUTO VRB07KT 9999 NCD 31/12 Q1008 BLU
12:55
V
31 °C 10 km+ - Var Var 8 kt METAR EHDL 141055Z AUTO VRB08KT 9999 NCD 31/13 Q1008 BLU
12:25
V
30 °C 10 km+ - Var Var 8 kt METAR EHDL 141025Z AUTO VRB08KT 9999 NCD 30/13 Q1008 BLU
11:55
V
29 °C 10 km+ 37.000 ft Var Var 8 kt METAR EHDL 140955Z AUTO VRB08KT 9999 OVC370 29/13 Q1009 BLU
11:25
V
29 °C 10 km+ 38.000 ft Var Var 7 kt METAR EHDL 140925Z AUTO VRB07KT 9999 OVC380 29/15 Q1009 BLU
10:55
V
27 °C 10 km+ 35.000 ft Var Var 7 kt METAR EHDL 140855Z AUTO VRB07KT 9999 OVC350 27/15 Q1009 BLU
Dados mais antigos

Nós e terceiros acompanhamos seu comportamento na internet em nosso site com cookies. Se você continuar, nós assumimos que você concorda com nossa política de cookies. Saiba mais